OEDF/DMM METAR and TAF weather

Enter ICAO airport designator
Station Type Date Time Source
OEDF METAR 2020/09/19 21:00 UTC NOAA

OEDF 192100Z VRB03KT CAVOK 29/19 Q1002 NOSIG


Station Type Date Time Source
OEDF Decoded METAR 2020/09/19 21:00 UTC NOAA

Dammam-King Fahd International Airport, Saudi Arabia (OEDF) 26-28N 049-47E
Sep 19, 2020 - 05:00 PM EDT / 2020.09.19 2100 UTC
Wind: Variable at 3 MPH (3 KT):0
Visibility: greater than 7 mile(s):0
Temperature: 84 F (29 C)
Dew Point: 66 F (19 C)
Relative Humidity: 54%
Pressure (altimeter): 29.59 in. Hg (1002 hPa)
ob: OEDF 192100Z VRB03KT CAVOK 29/19 Q1002 NOSIG
cycle: 21

Station Type Date Time Source
OEDF TAF 2020/09/19 18:06 UTC NOAA

TAF TAF OEDF 191600Z 1918/2024 VRB03KT CAVOK
BECMG 2004/2006 36008G18KT 8000

Example: see airport list